Russell Municipal Airport
KRSL : rendu visible

Aérodrome :











RETROUVEZ-NOUS SUR...

 
LOGIN :

S'inscrire | Disclaimer

   EN    FR    IT 

 









Légende :    VFR   VFR Marginal   IFR   IFR Intensif   IFR Très Intensif
Visi : 
Plafond : 
>= 8 km
>= 3000ft
5 à 8 km
1000 à 3000 ft
1500m à 5 km
500 à 1000 ft
800 à 1500m
200 à 500 ft
< 800m
< 200 ft
Symboles :   Orages  Brouillard  Fortes neiges  Fortes précipitations  Vent > 20 kt






- Altitude de l'aérodrome : 1862 ft


KRSL - Russell Municipal

DERNIER METAR :
  • 181553Z AUTO 32013KT 10SM CLR M01/M07 A3036 RMK AO2 SLP301 T10061072 $

METARs EXPIRÉS :
  • 181453Z AUTO 30012KT 10SM CLR M03/M07 A3034 RMK AO2 SLP292 T10281072 53040 $
  • 181353Z AUTO 30007KT 10SM CLR M04/M08 A3029 RMK AO2 SLP279 T10391078 $

TAF KRSL
Valide du 18 à 13h jusqu'au 19 à 12h UTC


181304Z 1813/1912 33014KT P6SM SCT250
FM190000 33006KT P6SM SCT250
FM190600 24005KT P6SM SKC



MET'MAP, la Météo Aéronautique d'un coup d'oeil ! - Copyright ORBIFLY Décembre 2007 - Disclaimer

ORBIFLY MET'MAP TEAM :

Programmation & Développement : Alexandra Zaïnal
Sur une idée originale de : Baudouin d'Aumeries
Assistance à la programmation : Marc-Olivier Méhu
Soutien technique & logistique : Manuel Goepfert

Contact : metmap@orbifly.com




SOURCES & CREDITS :

   NOAA       Earth
Advisory